createdAt,value
2018-05-31T00:01:20.035Z,34.93
2018-05-31T00:03:47.555Z,34.37
2018-05-31T00:06:15.094Z,36.53
2018-05-31T00:08:42.635Z,35.57
2018-05-31T00:11:10.249Z,38.23
2018-05-31T00:13:37.780Z,37.37
2018-05-31T00:16:05.479Z,39.33
2018-05-31T00:18:33.808Z,36.50
2018-05-31T00:21:01.665Z,37.00
2018-05-31T00:23:29.196Z,38.37
2018-05-31T00:25:56.727Z,38.03
2018-05-31T00:28:24.286Z,39.10
2018-05-31T00:30:51.832Z,38.87
2018-05-31T00:33:19.380Z,38.83
2018-05-31T00:35:46.909Z,39.33
2018-05-31T00:38:14.440Z,40.27
2018-05-31T00:40:42.021Z,39.03
2018-05-31T00:43:09.552Z,40.30
2018-05-31T00:45:37.076Z,42.47
2018-05-31T00:48:04.602Z,42.80
2018-05-31T00:50:32.140Z,42.80
2018-05-31T00:52:59.707Z,42.40
2018-05-31T00:55:38.824Z,42.23
2018-05-31T00:58:06.403Z,42.07
2018-05-31T01:00:33.929Z,44.17
2018-05-31T01:03:02.381Z,41.53
2018-05-31T01:05:30.716Z,40.13
2018-05-31T01:07:58.247Z,39.13
2018-05-31T01:10:25.875Z,39.73
2018-05-31T01:12:53.403Z,39.47
2018-05-31T01:15:20.984Z,40.43
2018-05-31T01:17:49.271Z,41.07
2018-05-31T01:20:16.798Z,42.03
2018-05-31T01:22:44.331Z,42.53
2018-05-31T01:25:11.924Z,41.03
2018-05-31T01:27:39.466Z,42.73
2018-05-31T01:30:07.010Z,41.50
2018-05-31T01:32:36.203Z,41.10
2018-05-31T01:35:03.736Z,42.03
2018-05-31T01:37:31.302Z,41.07
2018-05-31T01:39:58.840Z,42.23
2018-05-31T01:42:26.392Z,43.77
2018-05-31T01:44:53.924Z,42.50
2018-05-31T01:47:22.249Z,42.77
2018-05-31T01:49:49.817Z,42.43
2018-05-31T01:52:18.083Z,44.00
2018-05-31T01:54:45.623Z,44.27
2018-05-31T01:57:13.208Z,44.63
2018-05-31T01:59:40.748Z,43.43
2018-05-31T02:02:08.304Z,40.83
2018-05-31T02:04:35.858Z,43.07
2018-05-31T02:07:03.475Z,42.43
2018-05-31T02:09:31.008Z,43.73
2018-05-31T02:11:58.591Z,44.80
2018-05-31T02:14:26.211Z,43.67
2018-05-31T02:16:53.775Z,44.90
2018-05-31T02:19:21.333Z,43.70
2018-05-31T02:21:48.900Z,43.97
2018-05-31T02:24:16.432Z,42.60
2018-05-31T02:26:44.002Z,46.10
2018-05-31T02:29:11.559Z,43.63
2018-05-31T02:31:39.107Z,43.97
2018-05-31T02:34:07.529Z,46.37
2018-05-31T02:36:35.099Z,45.77
2018-05-31T02:39:02.640Z,45.17
2018-05-31T02:41:30.312Z,43.77
2018-05-31T02:43:57.864Z,44.70
2018-05-31T02:46:25.415Z,43.77
2018-05-31T02:48:53.322Z,47.00
2018-05-31T02:51:21.621Z,42.27
2018-05-31T02:53:49.171Z,44.70
2018-05-31T02:56:16.732Z,45.93
2018-05-31T02:58:44.263Z,44.07
2018-05-31T03:01:11.839Z,44.30
2018-05-31T03:03:40.150Z,44.17
2018-05-31T03:06:08.558Z,45.13
2018-05-31T03:08:36.100Z,44.83
2018-05-31T03:11:04.408Z,45.70
2018-05-31T03:13:31.960Z,44.53
2018-05-31T03:15:59.492Z,45.73
2018-05-31T03:18:27.052Z,44.67
2018-05-31T03:20:54.699Z,43.50
2018-05-31T03:23:22.239Z,43.73
2018-05-31T03:25:49.819Z,41.70
2018-05-31T03:28:17.500Z,42.33
2018-05-31T03:30:45.024Z,43.40
2018-05-31T03:33:12.555Z,43.10
2018-05-31T03:35:40.545Z,42.30
2018-05-31T03:38:08.096Z,43.53
2018-05-31T03:40:35.625Z,41.67
2018-05-31T03:43:04.895Z,40.80
2018-05-31T03:45:32.430Z,40.90
2018-05-31T03:47:59.961Z,42.93
2018-05-31T03:50:27.502Z,43.23
2018-05-31T03:52:55.791Z,42.63
2018-05-31T03:55:23.327Z,43.23
2018-05-31T03:57:50.852Z,43.83
2018-05-31T04:00:18.392Z,44.07
2018-05-31T04:02:45.937Z,42.67
2018-05-31T04:05:13.474Z,42.80
2018-05-31T04:07:42.599Z,41.57
2018-05-31T04:10:10.132Z,42.23
2018-05-31T04:12:37.684Z,42.10
2018-05-31T04:15:05.216Z,41.10
2018-05-31T04:17:32.751Z,41.00
2018-05-31T04:20:00.283Z,40.73
2018-05-31T04:22:28.584Z,40.07
2018-05-31T04:24:56.124Z,40.00
2018-05-31T04:27:23.643Z,39.67
2018-05-31T04:29:51.187Z,40.63
2018-05-31T04:32:18.724Z,40.23
2018-05-31T04:34:46.269Z,40.70
2018-05-31T04:37:13.855Z,38.90
2018-05-31T04:39:41.421Z,42.37
2018-05-31T04:42:09.990Z,39.17
2018-05-31T04:44:37.534Z,41.83
2018-05-31T04:47:05.068Z,40.20
2018-05-31T04:49:32.614Z,37.63
2018-05-31T04:52:00.145Z,38.87
2018-05-31T04:54:27.695Z,38.20
2018-05-31T04:56:55.231Z,37.97
2018-05-31T04:59:22.799Z,40.07
2018-05-31T05:01:50.346Z,38.13
2018-05-31T05:04:18.768Z,38.00
2018-05-31T05:06:46.294Z,37.97
2018-05-31T05:09:13.847Z,39.50
2018-05-31T05:11:42.139Z,38.67
2018-05-31T05:14:09.759Z,38.63
2018-05-31T05:16:37.306Z,35.47
2018-05-31T05:19:04.875Z,36.90
2018-05-31T05:21:32.429Z,38.67
2018-05-31T05:23:59.963Z,36.43
2018-05-31T05:26:27.587Z,37.53
2018-05-31T05:28:55.079Z,34.80
2018-05-31T05:31:22.615Z,36.47
2018-05-31T05:33:50.155Z,36.27
2018-05-31T05:36:17.692Z,34.23
2018-05-31T05:38:45.231Z,34.17
2018-05-31T05:41:12.783Z,33.27
2018-05-31T05:43:40.311Z,34.20
2018-05-31T05:46:08.615Z,32.27
2018-05-31T05:48:36.152Z,35.10
2018-05-31T05:51:03.692Z,33.40
2018-05-31T05:53:31.231Z,32.43
2018-05-31T05:55:58.779Z,32.73
2018-05-31T05:58:27.138Z,31.97
2018-05-31T06:00:54.666Z,30.17
2018-05-31T06:03:22.197Z,29.97
2018-05-31T06:05:49.743Z,28.07
2018-05-31T06:08:17.301Z,28.07
2018-05-31T06:10:44.869Z,27.10
2018-05-31T06:13:12.416Z,26.73
2018-05-31T06:15:39.953Z,25.35
2018-05-31T06:18:07.501Z,26.25
2018-05-31T06:20:35.055Z,24.00
2018-05-31T06:23:02.615Z,23.67
2018-05-31T06:25:30.147Z,22.20
2018-05-31T06:27:57.676Z,21.15
2018-05-31T06:30:25.218Z,19.05
2018-05-31T06:32:52.755Z,19.92
2018-05-31T06:35:21.096Z,19.48
2018-05-31T06:37:48.620Z,18.85
2018-05-31T06:40:16.154Z,19.10
2018-05-31T06:42:43.689Z,19.40
2018-05-31T06:45:11.239Z,18.23
2018-05-31T06:47:38.760Z,20.25
2018-05-31T06:50:06.296Z,19.12
2018-05-31T06:52:33.824Z,20.05
2018-05-31T06:55:01.368Z,20.12
2018-05-31T06:57:28.912Z,18.73
2018-05-31T06:59:56.460Z,17.75
2018-05-31T07:02:23.986Z,17.42
2018-05-31T07:04:51.512Z,17.02
2018-05-31T07:07:19.032Z,16.35
2018-05-31T07:09:47.344Z,16.15
2018-05-31T07:12:14.871Z,16.95
2018-05-31T07:14:42.408Z,16.52
2018-05-31T07:17:09.938Z,17.90
2018-05-31T07:19:37.463Z,17.90
2018-05-31T07:22:04.983Z,17.48
2018-05-31T07:24:32.508Z,18.35
2018-05-31T07:27:00.040Z,16.85
2018-05-31T07:29:27.563Z,16.62
2018-05-31T07:31:55.095Z,17.35
2018-05-31T07:34:22.624Z,15.85
2018-05-31T07:36:50.149Z,16.33
2018-05-31T07:39:17.680Z,16.83
2018-05-31T07:41:45.975Z,15.55
2018-05-31T07:44:13.493Z,17.95
2018-05-31T07:46:41.012Z,17.85
2018-05-31T07:49:08.536Z,19.08
2018-05-31T07:51:36.823Z,16.92
2018-05-31T07:54:04.355Z,17.60
2018-05-31T07:56:31.895Z,17.87
2018-05-31T07:58:59.428Z,16.95
2018-05-31T08:01:26.962Z,18.23
2018-05-31T08:03:54.504Z,17.73
2018-05-31T08:06:22.028Z,19.40
2018-05-31T08:08:49.563Z,17.65
2018-05-31T08:11:17.097Z,18.52
2018-05-31T08:13:44.641Z,18.08
2018-05-31T08:16:12.165Z,18.25
2018-05-31T08:18:39.696Z,18.10
2018-05-31T08:21:07.219Z,20.88
2018-05-31T08:23:35.483Z,19.00
2018-05-31T08:26:02.998Z,18.90
2018-05-31T08:28:30.515Z,18.60
2018-05-31T08:30:58.059Z,17.50
2018-05-31T08:33:25.579Z,17.77
2018-05-31T08:35:53.131Z,17.15
2018-05-31T08:38:20.658Z,18.30
2018-05-31T08:40:48.416Z,18.25
2018-05-31T08:43:15.939Z,17.87
2018-05-31T08:45:43.458Z,17.95
2018-05-31T08:48:10.983Z,16.75
2018-05-31T08:50:38.503Z,16.60
2018-05-31T08:53:06.031Z,16.52
2018-05-31T08:55:33.560Z,16.98
2018-05-31T08:58:01.097Z,16.80
2018-05-31T09:00:28.615Z,16.42
2018-05-31T09:02:56.307Z,15.80
2018-05-31T09:05:24.591Z,16.87
2018-05-31T09:07:52.110Z,15.25
2018-05-31T09:10:19.644Z,14.50
2018-05-31T09:12:47.168Z,14.45
2018-05-31T09:15:15.518Z,12.30
2018-05-31T09:17:42.999Z,15.55
2018-05-31T09:20:11.443Z,15.90
2018-05-31T09:22:38.962Z,15.32
2018-05-31T09:25:07.246Z,12.63
2018-05-31T09:27:34.776Z,12.85
2018-05-31T09:30:02.304Z,13.40
2018-05-31T09:32:29.831Z,14.13
2018-05-31T09:34:57.345Z,18.87
2018-05-31T09:37:24.869Z,13.65
2018-05-31T09:39:52.392Z,12.70
2018-05-31T09:42:19.935Z,11.90
2018-05-31T09:44:47.479Z,14.32
2018-05-31T09:47:15.064Z,11.25
2018-05-31T09:49:42.592Z,9.70
2018-05-31T09:52:10.133Z,9.57
2018-05-31T09:54:37.656Z,9.60
2018-05-31T09:57:05.180Z,9.85
2018-05-31T09:59:32.725Z,10.52
2018-05-31T10:02:00.258Z,9.88
2018-05-31T10:04:27.827Z,11.57
2018-05-31T10:06:55.347Z,10.90
2018-05-31T10:09:22.883Z,11.60
2018-05-31T10:11:50.403Z,9.88
2018-05-31T10:14:17.939Z,9.48
2018-05-31T10:16:45.460Z,8.48
2018-05-31T10:19:12.979Z,9.13
2018-05-31T10:21:40.510Z,9.85
2018-05-31T10:24:08.037Z,9.80
2018-05-31T10:26:35.555Z,10.10
2018-05-31T10:29:03.088Z,10.23
2018-05-31T10:31:30.639Z,10.52
2018-05-31T10:33:58.147Z,9.63
2018-05-31T10:36:25.685Z,10.30
2018-05-31T10:38:53.221Z,10.60
2018-05-31T10:41:20.738Z,10.70
2018-05-31T10:43:48.282Z,10.20
2018-05-31T10:46:18.514Z,10.73
2018-05-31T10:48:46.100Z,10.90
2018-05-31T10:51:13.686Z,11.43
2018-05-31T10:53:41.215Z,10.80
2018-05-31T10:56:08.750Z,11.30
2018-05-31T10:58:36.275Z,10.43
2018-05-31T11:01:03.799Z,11.35
2018-05-31T11:03:31.323Z,12.13
2018-05-31T11:05:58.843Z,11.35
2018-05-31T11:08:26.366Z,11.52
2018-05-31T11:10:53.891Z,12.48
2018-05-31T11:13:21.419Z,12.35
2018-05-31T11:15:48.944Z,12.15
2018-05-31T11:18:16.462Z,12.43
2018-05-31T11:20:43.986Z,11.65
2018-05-31T11:23:11.499Z,11.85
2018-05-31T11:25:39.031Z,11.57
2018-05-31T11:28:06.550Z,11.75
2018-05-31T11:30:34.099Z,12.68
2018-05-31T11:33:01.615Z,11.60
2018-05-31T11:35:29.130Z,9.02
2018-05-31T11:37:56.643Z,10.50
2018-05-31T11:40:25.079Z,10.20
2018-05-31T11:42:52.607Z,10.98
2018-05-31T11:45:20.120Z,10.93
2018-05-31T11:47:47.658Z,11.85
2018-05-31T11:50:15.185Z,10.48
2018-05-31T11:52:42.713Z,14.23
2018-05-31T11:55:10.241Z,10.63
2018-05-31T11:57:37.759Z,11.57
2018-05-31T12:00:05.289Z,18.92
2018-05-31T12:02:32.807Z,12.35
2018-05-31T12:05:00.335Z,11.12
2018-05-31T12:07:27.852Z,10.48
2018-05-31T12:09:55.381Z,10.45
2018-05-31T12:12:22.897Z,9.98
2018-05-31T12:14:50.418Z,10.93
2018-05-31T12:17:17.965Z,11.52
2018-05-31T12:19:45.550Z,10.13
2018-05-31T12:22:13.125Z,11.18
2018-05-31T12:24:40.664Z,10.43
2018-05-31T12:27:08.224Z,10.07
2018-05-31T12:29:35.743Z,9.45
2018-05-31T12:32:03.260Z,8.98
2018-05-31T12:34:30.800Z,8.30
2018-05-31T12:36:58.315Z,8.30
2018-05-31T12:39:25.862Z,9.02
2018-05-31T12:41:54.140Z,9.30
2018-05-31T12:44:21.660Z,8.90
2018-05-31T12:46:49.179Z,8.90
2018-05-31T12:49:16.698Z,9.00
2018-05-31T12:51:44.223Z,11.07
2018-05-31T12:54:11.742Z,10.20
2018-05-31T12:56:39.274Z,10.25
2018-05-31T12:59:06.787Z,9.27
2018-05-31T13:01:34.306Z,9.60
2018-05-31T13:04:01.823Z,10.40
2018-05-31T13:06:29.348Z,9.88
2018-05-31T13:08:56.891Z,10.20
2018-05-31T13:11:24.411Z,10.52
2018-05-31T13:13:51.932Z,10.20
2018-05-31T13:16:19.470Z,10.45
2018-05-31T13:18:47.844Z,11.55
2018-05-31T13:21:16.136Z,12.60
2018-05-31T13:23:43.656Z,11.18
2018-05-31T13:26:11.184Z,10.85
2018-05-31T13:28:38.715Z,11.12
2018-05-31T13:31:06.241Z,11.63
2018-05-31T13:33:33.773Z,10.77
2018-05-31T13:36:01.311Z,10.45
2018-05-31T13:38:28.834Z,10.52
2018-05-31T13:40:56.355Z,10.35
2018-05-31T13:43:23.879Z,9.95
2018-05-31T13:45:52.177Z,10.93
2018-05-31T13:48:19.876Z,10.75
2018-05-31T13:50:47.382Z,9.25
2018-05-31T13:53:14.924Z,9.63
2018-05-31T13:55:42.452Z,10.55
2018-05-31T13:58:09.996Z,10.45
2018-05-31T14:00:38.238Z,9.60
2018-05-31T14:03:05.774Z,9.40
2018-05-31T14:05:33.302Z,8.57
2018-05-31T14:08:00.840Z,9.05
2018-05-31T14:10:28.363Z,8.77
2018-05-31T14:12:56.692Z,10.77
2018-05-31T14:15:24.212Z,10.50
2018-05-31T14:17:51.730Z,9.32
2018-05-31T14:20:19.247Z,9.55
2018-05-31T14:22:46.766Z,9.75
2018-05-31T14:25:14.599Z,10.07
2018-05-31T14:27:42.115Z,10.00
2018-05-31T14:30:09.662Z,10.98
2018-05-31T14:32:37.193Z,10.13
2018-05-31T14:35:04.727Z,10.88
2018-05-31T14:37:32.253Z,10.93
2018-05-31T14:39:59.788Z,10.98
2018-05-31T14:42:27.307Z,11.15
2018-05-31T14:44:54.863Z,13.10
2018-05-31T14:47:22.676Z,14.18
2018-05-31T14:49:50.192Z,12.60
2018-05-31T14:52:17.734Z,12.10
2018-05-31T14:54:45.259Z,10.35
2018-05-31T14:57:12.792Z,10.15
2018-05-31T14:59:40.324Z,11.18
2018-05-31T15:02:07.848Z,10.70
2018-05-31T15:04:35.371Z,10.65
2018-05-31T15:07:02.892Z,9.98
2018-05-31T15:09:30.411Z,10.43
2018-05-31T15:11:57.988Z,10.60
2018-05-31T15:14:25.516Z,16.92
2018-05-31T15:16:53.031Z,13.90
2018-05-31T15:19:20.568Z,14.70
2018-05-31T15:21:48.102Z,17.13
2018-05-31T15:24:15.627Z,17.20
2018-05-31T15:26:43.159Z,15.45
2018-05-31T15:29:10.689Z,15.65
2018-05-31T15:31:39.147Z,16.90
2018-05-31T15:34:06.697Z,16.87
2018-05-31T15:36:34.219Z,18.20
2018-05-31T15:39:01.728Z,18.20
2018-05-31T15:41:29.243Z,17.40
2018-05-31T15:43:56.782Z,18.27
2018-05-31T15:46:24.300Z,18.17
2018-05-31T15:48:51.825Z,16.57
2018-05-31T15:51:19.366Z,17.00
2018-05-31T15:53:47.705Z,18.80
2018-05-31T15:56:15.228Z,17.63
2018-05-31T15:58:42.746Z,17.47
2018-05-31T16:01:10.278Z,16.50
2018-05-31T16:03:37.803Z,17.37
2018-05-31T16:06:06.092Z,16.67
2018-05-31T16:08:33.651Z,16.57
2018-05-31T16:11:01.143Z,16.47
2018-05-31T16:13:28.659Z,16.60
2018-05-31T16:15:56.442Z,14.93
2018-05-31T16:18:23.959Z,14.07
2018-05-31T16:20:51.482Z,13.73
2018-05-31T16:23:18.998Z,14.93
2018-05-31T16:25:47.282Z,14.23
2018-05-31T16:28:14.806Z,13.17
2018-05-31T16:30:42.339Z,13.90
2018-05-31T16:33:09.861Z,12.67
2018-05-31T16:35:37.383Z,12.97
2018-05-31T16:38:04.903Z,12.47
2018-05-31T16:40:32.429Z,12.23
2018-05-31T16:42:59.955Z,12.10
2018-05-31T16:45:27.471Z,11.73
2018-05-31T16:47:54.989Z,12.63
2018-05-31T16:50:22.507Z,11.50
2018-05-31T16:52:50.032Z,12.33
2018-05-31T16:55:18.313Z,10.57
2018-05-31T16:57:45.866Z,10.93
2018-05-31T17:00:13.388Z,11.77
2018-05-31T17:02:40.903Z,10.60
2018-05-31T17:05:08.428Z,10.23
2018-05-31T17:07:35.947Z,11.10
2018-05-31T17:10:03.491Z,11.30
2018-05-31T17:12:31.008Z,10.10
2018-05-31T17:14:58.622Z,11.53
2018-05-31T17:17:26.091Z,11.07
2018-05-31T17:19:53.637Z,11.10
2018-05-31T17:22:21.167Z,11.67
2018-05-31T17:24:48.724Z,12.37
2018-05-31T17:27:16.240Z,12.67
2018-05-31T17:29:43.769Z,11.53
2018-05-31T17:32:11.289Z,13.17
2018-05-31T17:34:38.830Z,12.23
2018-05-31T17:37:06.348Z,11.90
2018-05-31T17:39:33.874Z,12.23
2018-05-31T17:42:01.399Z,13.97
2018-05-31T17:44:28.919Z,13.63
2018-05-31T17:46:56.443Z,14.50
2018-05-31T17:49:24.916Z,14.17
2018-05-31T17:51:52.437Z,14.37
2018-05-31T17:54:19.959Z,15.30
2018-05-31T17:56:47.480Z,15.00
2018-05-31T17:59:15.012Z,14.53
2018-05-31T18:01:42.536Z,16.17
2018-05-31T18:04:10.071Z,15.30
2018-05-31T18:06:37.587Z,15.33
2018-05-31T18:09:05.926Z,15.93
2018-05-31T18:11:33.445Z,14.90
2018-05-31T18:14:00.986Z,15.93
2018-05-31T18:16:28.507Z,16.50
2018-05-31T18:18:56.058Z,15.60
2018-05-31T18:21:23.573Z,16.10
2018-05-31T18:23:51.862Z,17.00
2018-05-31T18:26:19.394Z,17.47
2018-05-31T18:28:46.925Z,16.53
2018-05-31T18:31:14.511Z,17.30
2018-05-31T18:33:42.799Z,17.13
2018-05-31T18:36:10.344Z,17.20
2018-05-31T18:38:37.866Z,17.87
2018-05-31T18:41:05.448Z,17.77
2018-05-31T18:43:32.967Z,18.90
2018-05-31T18:46:00.515Z,20.10
2018-05-31T18:48:28.040Z,17.07
2018-05-31T18:50:55.582Z,19.00
2018-05-31T18:53:23.116Z,17.43
2018-05-31T18:55:50.655Z,18.87
2018-05-31T18:58:18.959Z,19.63
2018-05-31T19:00:46.493Z,19.50
2018-05-31T19:03:14.037Z,19.30
2018-05-31T19:05:41.568Z,18.90
2018-05-31T19:08:09.908Z,19.83
2018-05-31T19:10:37.431Z,19.93
2018-05-31T19:13:10.575Z,19.50
2018-05-31T19:15:38.096Z,20.67
2018-05-31T19:18:05.620Z,20.53
2018-05-31T19:20:33.152Z,20.50
2018-05-31T19:23:00.675Z,21.97
2018-05-31T19:25:28.198Z,20.83
2018-05-31T19:27:55.734Z,21.93
2018-05-31T19:30:28.964Z,20.57
2018-05-31T19:32:56.491Z,21.10
2018-05-31T19:35:29.937Z,21.10
2018-05-31T19:37:58.238Z,20.53
2018-05-31T19:40:25.771Z,20.30
2018-05-31T19:42:58.994Z,21.10
2018-05-31T19:45:27.346Z,21.97
2018-05-31T19:47:54.897Z,20.93
2018-05-31T19:50:22.429Z,21.20
2018-05-31T19:52:55.537Z,21.17
2018-05-31T19:55:23.047Z,21.40
2018-05-31T19:57:56.234Z,21.30
2018-05-31T20:00:29.831Z,22.33
2018-05-31T20:03:03.080Z,21.80
2018-05-31T20:05:31.264Z,23.10
2018-05-31T20:07:58.811Z,22.63
2018-05-31T20:10:26.323Z,23.30
2018-05-31T20:12:53.837Z,22.67
2018-05-31T20:15:21.387Z,22.93
2018-05-31T20:17:48.902Z,22.43
2018-05-31T20:20:17.187Z,22.97
2018-05-31T20:22:44.704Z,22.80
2018-05-31T20:25:12.230Z,22.70
2018-05-31T20:27:39.743Z,23.30
2018-05-31T20:30:07.271Z,22.67
2018-05-31T20:32:34.847Z,22.27
2018-05-31T20:35:02.339Z,21.70
2018-05-31T20:37:29.855Z,22.93
2018-05-31T20:39:57.384Z,22.47
2018-05-31T20:42:24.907Z,24.40
2018-05-31T20:44:52.432Z,24.10
2018-05-31T20:47:21.588Z,24.03
2018-05-31T20:49:49.378Z,24.30
2018-05-31T20:52:16.918Z,24.80
2018-05-31T20:54:44.439Z,24.23
2018-05-31T20:57:11.981Z,25.23
2018-05-31T20:59:39.504Z,23.87
2018-05-31T21:02:07.048Z,24.07
2018-05-31T21:04:34.614Z,23.87
2018-05-31T21:07:02.160Z,25.03
2018-05-31T21:09:30.443Z,24.97
2018-05-31T21:11:57.969Z,25.60
2018-05-31T21:14:25.494Z,26.63
2018-05-31T21:16:53.019Z,26.23
2018-05-31T21:19:21.311Z,25.30
2018-05-31T21:21:48.845Z,25.43
2018-05-31T21:24:16.380Z,27.70
2018-05-31T21:26:43.907Z,27.27
2018-05-31T21:29:11.433Z,26.40
2018-05-31T21:31:38.959Z,27.83
2018-05-31T21:34:06.496Z,26.03
2018-05-31T21:36:34.012Z,26.50
2018-05-31T21:39:01.533Z,27.17
2018-05-31T21:41:29.058Z,26.93
2018-05-31T21:43:56.588Z,29.67
2018-05-31T21:46:24.869Z,27.33
2018-05-31T21:48:52.392Z,25.70
2018-05-31T21:51:19.911Z,27.83
2018-05-31T21:53:47.439Z,29.20
2018-05-31T21:56:15.724Z,28.07
2018-05-31T21:58:43.253Z,28.93
2018-05-31T22:01:10.767Z,29.33
2018-05-31T22:03:38.293Z,28.67
2018-05-31T22:06:06.596Z,30.53
2018-05-31T22:08:34.121Z,31.00
2018-05-31T22:11:01.658Z,29.57
2018-05-31T22:13:29.175Z,27.93
2018-05-31T22:15:56.703Z,26.93
2018-05-31T22:18:24.222Z,25.20
2018-05-31T22:20:51.756Z,27.00
2018-05-31T22:23:19.278Z,30.53
2018-05-31T22:25:46.803Z,31.10
2018-05-31T22:28:14.319Z,30.00
2018-05-31T22:30:41.839Z,33.57
2018-05-31T22:33:09.369Z,32.50
2018-05-31T22:35:36.911Z,31.80
2018-05-31T22:38:05.234Z,33.57
2018-05-31T22:40:32.747Z,32.70
2018-05-31T22:43:00.296Z,31.73
2018-05-31T22:45:27.824Z,32.90
2018-05-31T22:47:55.344Z,33.27
2018-05-31T22:50:22.868Z,34.33
2018-05-31T22:52:50.402Z,32.83
2018-05-31T22:55:17.923Z,30.10
2018-05-31T22:57:45.443Z,30.07
2018-05-31T23:00:12.981Z,28.60
2018-05-31T23:02:40.600Z,29.67
2018-05-31T23:05:08.118Z,31.33
2018-05-31T23:07:35.640Z,30.97
2018-05-31T23:10:03.155Z,31.10
2018-05-31T23:12:30.666Z,33.27
2018-05-31T23:14:58.190Z,32.13
2018-05-31T23:17:25.712Z,32.70
2018-05-31T23:19:53.227Z,33.47
2018-05-31T23:22:20.760Z,32.87
2018-05-31T23:24:48.292Z,33.20
2018-05-31T23:27:15.810Z,33.67
2018-05-31T23:29:43.319Z,32.70
2018-05-31T23:32:10.837Z,32.73
2018-05-31T23:34:38.411Z,32.37
2018-05-31T23:37:05.936Z,31.83
2018-05-31T23:39:33.463Z,33.47
2018-05-31T23:42:01.035Z,33.70
2018-05-31T23:44:28.560Z,33.77
2018-05-31T23:46:56.085Z,32.87
2018-05-31T23:49:23.603Z,33.73
2018-05-31T23:51:51.133Z,34.37
2018-05-31T23:54:18.651Z,33.93
2018-05-31T23:56:46.172Z,33.13
2018-05-31T23:59:13.692Z,33.70
